Time;durP1;ratioP1;P1;durP2;ratioP2;P2;SDS_P1;SDS_P2;PMS_P1;PMS_P2;Temp;Humidity;BMP_temperature;BMP_pressure;BME280_temperature;BME280_humidity;BME280_pressure;Samples;Min_cycle;Max_cycle;Signal;HPM_P1;HPM_P2
2022/12/24 00:01:36;;;;;;;;;;;;;;;;;;;;;
2022/12/24 00:07:03;;;;;;;39.58;5.47;;;;;;;8.74;100.00;100535.09;5042962;28;20068;-93
2022/12/24 00:12:46;;;;;;;25.08;5.65;;;;;;;8.72;100.00;100520.97;5073320;28;20035;-93
2022/12/24 00:28:21;;;;;;;42.28;6.05;;;;;;;8.68;100.00;100530.53;5059717;28;20439;-92
2022/12/24 00:31:25;;;;;;;;;;;;;;;;;;;;;
2022/12/24 00:34:11;;;;;;;;;;;;;;;;;;;;;
2022/12/24 00:37:10;;;;;;;35.25;5.30;;;;;;;8.80;100.00;100545.09;5077429;28;20035;-92
2022/12/24 00:39:49;;;;;;;36.30;5.10;;;;;;;8.81;100.00;100562.16;5058886;28;20094;-92
2022/12/24 00:42:30;;;;;;;29.85;4.72;;;;;;;8.73;100.00;100550.50;5058881;28;20035;-92
2022/12/24 00:45:42;;;;;;;33.15;4.78;;;;;;;8.70;100.00;100559.03;5058874;28;20472;-91
2022/12/24 00:48:14;;;;;;;43.08;5.82;;;;;;;8.74;100.00;100570.25;5061147;28;20551;-92
2022/12/24 00:50:43;;;;;;;33.13;5.15;;;;;;;8.82;100.00;100571.94;5044864;28;20051;-91
2022/12/24 00:53:41;;;;;;;;;;;;;;;;;;;;;
2022/12/24 00:56:15;;;;;;;33.78;4.90;;;;;;;8.73;100.00;100590.25;5082844;28;20092;-91
2022/12/24 00:59:01;;;;;;;33.95;5.47;;;;;;;8.71;100.00;100579.66;5046476;28;20028;-91
2022/12/24 01:01:43;;;;;;;31.08;5.15;;;;;;;8.72;100.00;100589.41;5059363;28;20095;-91
2022/12/24 01:07:28;;;;;;;;;;;;;;;;;;;;;
2022/12/24 01:10:07;;;;;;;32.10;5.68;;;;;;;8.70;100.00;100607.72;5062615;28;20104;-92
2022/12/24 01:12:49;;;;;;;;;;;;;;;;;;;;;
2022/12/24 01:15:45;;;;;;;39.88;5.55;;;;;;;8.64;100.00;100594.22;5075705;28;20024;-91
2022/12/24 01:18:43;;;;;;;41.85;5.65;;;;;;;8.57;100.00;100595.03;5043511;28;20041;-92
2022/12/24 01:21:31;;;;;;;37.20;5.97;;;;;;;8.54;100.00;100611.69;5045451;28;20029;-92
2022/12/24 01:24:27;;;;;;;36.05;5.97;;;;;;;8.50;100.00;100606.91;5058144;28;20028;-92
2022/12/24 01:27:10;;;;;;;45.95;5.85;;;;;;;8.50;100.00;100625.81;5041208;28;20040;-91
2022/12/24 01:29:45;;;;;;;30.77;5.57;;;;;;;8.40;100.00;100626.19;5041526;28;20029;-92
2022/12/24 01:32:25;;;;;;;32.53;6.38;;;;;;;8.42;100.00;100635.75;5058183;28;20040;-91
2022/12/24 01:35:06;;;;;;;27.55;5.80;;;;;;;8.40;100.00;100631.59;5040954;28;20177;-91
2022/12/24 01:37:53;;;;;;;;;;;;;;;;;;;;;
2022/12/24 01:46:54;;;;;;;31.85;6.00;;;;;;;8.19;100.00;100640.72;5074847;28;20036;-91
2022/12/24 01:49:22;;;;;;;33.97;6.00;;;;;;;8.17;100.00;100640.09;5074161;28;20205;-91
2022/12/24 01:52:44;;;;;;;;;;;;;;;;;;;;;
2022/12/24 01:58:11;;;;;;;31.80;5.43;;;;;;;8.29;100.00;100648.44;5066959;28;20417;-91
2022/12/24 02:00:41;;;;;;;42.30;5.53;;;;;;;8.25;100.00;100632.63;5040864;28;20041;-92
2022/12/24 02:03:29;;;;;;;;;;;;;;;;;;;;;
2022/12/24 02:06:11;;;;;;;;;;;;;;;;;;;;;
2022/12/24 02:09:10;;;;;;;42.20;5.82;;;;;;;8.34;100.00;100663.00;5075295;28;20029;-92
2022/12/24 02:11:53;;;;;;;46.42;5.93;;;;;;;8.40;100.00;100673.00;5029838;28;20040;-92
2022/12/24 02:14:47;;;;;;;40.22;5.57;;;;;;;8.47;100.00;100672.22;5056925;28;20496;-91
2022/12/24 02:17:55;;;;;;;;;;;;;;;;;;;;;
2022/12/24 02:21:22;;;;;;;37.97;5.50;;;;;;;8.54;100.00;100683.88;5075231;28;20039;-92
2022/12/24 02:24:23;;;;;;;39.40;4.95;;;;;;;8.60;100.00;100691.97;5074212;28;20372;-92
2022/12/24 02:26:57;;;;;;;35.97;6.03;;;;;;;8.62;100.00;100680.13;5056794;28;20119;-92
2022/12/24 02:29:42;;;;;;;36.80;5.47;;;;;;;8.65;100.00;100677.00;5056388;28;20032;-92
2022/12/24 02:32:56;;;;;;;;;;;;;;;;;;;;;
2022/12/24 02:39:09;;;;;;;40.25;5.57;;;;;;;8.69;100.00;100713.44;5076462;28;20088;-92
2022/12/24 02:45:08;;;;;;;53.00;5.40;;;;;;;8.73;100.00;100687.63;5082929;28;20038;-92
2022/12/24 02:51:16;;;;;;;43.45;4.63;;;;;;;8.74;100.00;100682.00;5061764;28;20060;-92
2022/12/24 02:54:05;;;;;;;;;;;;;;;;;;;;;
2022/12/24 02:56:48;;;;;;;35.53;4.85;;;;;;;8.73;100.00;100683.03;5058262;28;20039;-92
2022/12/24 03:00:05;;;;;;;37.17;4.13;;;;;;;8.71;100.00;100682.44;5057741;28;20032;-92
2022/12/24 03:03:24;;;;;;;38.30;5.00;;;;;;;8.71;100.00;100679.72;5057087;28;20066;-93
2022/12/24 03:06:41;;;;;;;;;;;;;;;;;;;;;
2022/12/24 03:12:53;;;;;;;33.20;5.22;;;;;;;8.77;100.00;100705.94;5078691;28;20064;-92
2022/12/24 03:15:28;;;;;;;25.05;3.95;;;;;;;8.85;100.00;100704.06;5048259;28;20040;-92
2022/12/24 03:18:03;;;;;;;34.88;4.45;;;;;;;8.86;100.00;100689.50;5060055;28;20032;-92
2022/12/24 03:21:22;;;;;;;;;;;;;;;;;;;;;
2022/12/24 03:24:00;;;;;;;36.42;5.00;;;;;;;8.87;100.00;100696.56;5072191;28;20040;-92
2022/12/24 03:27:03;;;;;;;;;;;;;;;;;;;;;
2022/12/24 03:30:17;;;;;;;;;;;;;;;;;;;;;
2022/12/24 03:32:50;;;;;;;29.10;3.97;;;;;;;8.98;100.00;100704.06;5075329;28;20380;-92
2022/12/24 03:35:28;;;;;;;25.33;3.92;;;;;;;8.99;100.00;100710.31;5051843;28;20036;-92
2022/12/24 03:38:26;;;;;;;35.15;4.75;;;;;;;9.03;100.00;100708.88;5045970;28;20068;-92
2022/12/24 03:41:07;;;;;;;32.08;6.20;;;;;;;9.07;100.00;100726.34;5050839;28;20036;-93
2022/12/24 03:44:14;;;;;;;;;;;;;;;;;;;;;
2022/12/24 03:46:48;;;;;;;25.35;4.70;;;;;;;9.06;100.00;100721.97;5078107;28;20032;-93
2022/12/24 03:49:33;;;;;;;31.20;4.57;;;;;;;9.07;100.00;100727.19;5059373;28;20427;-93
2022/12/24 03:52:29;;;;;;;26.05;4.63;;;;;;;9.13;100.00;100733.63;5044776;28;20070;-92
2022/12/24 04:01:14;;;;;;;;;;;;;;;;;;;;;
2022/12/24 04:03:43;;;;;;;33.70;5.60;;;;;;;9.06;100.00;100730.91;5062170;28;20051;-92
2022/12/24 04:06:20;;;;;;;25.08;4.53;;;;;;;9.05;100.00;100744.66;5043401;28;20037;-93
2022/12/24 04:09:08;;;;;;;;;;;;;;;;;;;;;
2022/12/24 04:11:36;;;;;;;30.30;4.60;;;;;;;9.05;100.00;100741.94;5078001;28;20035;-92
2022/12/24 04:14:14;;;;;;;33.65;5.20;;;;;;;9.03;100.00;100744.03;5060071;28;20028;-92
2022/12/24 04:16:58;;;;;;;21.92;4.63;;;;;;;9.05;100.00;100734.69;5053604;28;20059;-92
2022/12/24 04:19:30;;;;;;;27.23;4.57;;;;;;;9.07;100.00;100748.00;5073242;28;20028;-93
2022/12/24 04:22:24;;;;;;;;;;;;;;;;;;;;;
2022/12/24 04:24:57;;;;;;;32.90;5.47;;;;;;;9.07;100.00;100754.25;5062904;28;20084;-92
2022/12/24 04:27:36;;;;;;;;;;;;;;;;;;;;;
2022/12/24 04:30:12;;;;;;;27.52;4.72;;;;;;;9.06;100.00;100754.44;5080149;28;20115;-92
2022/12/24 04:32:41;;;;;;;33.30;5.60;;;;;;;9.03;100.00;100744.88;5029599;28;20032;-92
2022/12/24 04:35:10;;;;;;;32.17;5.68;;;;;;;8.98;100.00;100766.31;5059626;28;20106;-92
2022/12/24 04:37:48;;;;;;;;;;;;;;;;;;;;;
2022/12/24 04:40:58;;;;;;;30.13;5.35;;;;;;;8.95;100.00;100759.44;5062911;28;20111;-92
2022/12/24 04:43:33;;;;;;;36.70;5.65;;;;;;;8.94;100.00;100760.47;5076932;28;20040;-92
2022/12/24 04:46:23;;;;;;;32.70;4.68;;;;;;;9.00;100.00;100772.34;5030614;28;20179;-92
2022/12/24 04:48:59;;;;;;;31.08;4.47;;;;;;;8.98;100.00;100763.63;5046302;28;20131;-92
2022/12/24 04:51:39;;;;;;;36.03;4.13;;;;;;;8.90;100.00;100752.97;5059425;28;20060;-91
2022/12/24 04:54:07;;;;;;;29.65;4.43;;;;;;;8.92;100.00;100750.91;5028189;28;20035;-92
2022/12/24 04:57:10;;;;;;;38.05;4.38;;;;;;;8.97;100.00;100771.94;5041970;28;20041;-92
2022/12/24 04:59:41;;;;;;;36.50;4.68;;;;;;;8.99;100.00;100768.00;5033011;28;20086;-92
2022/12/24 05:02:16;;;;;;;28.65;4.35;;;;;;;8.98;100.00;100762.78;5059328;28;20028;-93
2022/12/24 05:05:07;;;;;;;29.15;4.05;;;;;;;8.95;100.00;100772.16;5058999;28;20032;-92
2022/12/24 05:08:00;;;;;;;29.40;4.25;;;;;;;8.95;100.00;100767.56;5045928;28;20037;-93
2022/12/24 05:10:48;;;;;;;;;;;;;;;;;;;;;
2022/12/24 05:13:32;;;;;;;;;;;;;;;;;;;;;
2022/12/24 05:16:01;;;;;;;32.53;4.25;;;;;;;9.02;100.00;100789.22;5078413;28;20050;-93
2022/12/24 05:18:27;;;;;;;35.25;4.85;;;;;;;8.96;100.00;100790.03;5044271;28;20036;-92
2022/12/24 05:21:14;;;;;;;26.92;3.88;;;;;;;8.99;100.00;100780.69;5060049;28;20024;-92
2022/12/24 05:26:43;;;;;;;30.23;4.28;;;;;;;8.99;100.00;100777.97;5078772;28;20051;-92
2022/12/24 05:29:33;;;;;;;31.33;4.28;;;;;;;8.90;100.00;100772.78;5060565;28;20032;-92
2022/12/24 05:32:28;;;;;;;29.08;4.07;;;;;;;8.89;100.00;100771.09;5076746;28;20473;-92
2022/12/24 05:35:09;;;;;;;30.90;4.88;;;;;;;8.85;100.00;100763.59;5058723;28;20035;-92
2022/12/24 05:37:46;;;;;;;42.03;4.45;;;;;;;8.88;100.00;100771.31;5058412;28;20024;-92
2022/12/24 05:40:23;;;;;;;31.08;4.25;;;;;;;8.91;100.00;100779.00;5028907;28;20063;-92
2022/12/24 05:42:57;;;;;;;33.17;4.32;;;;;;;8.92;100.00;100777.97;5048098;28;20056;-93
2022/12/24 05:45:32;;;;;;;31.63;4.13;;;;;;;8.88;100.00;100785.66;5060434;28;20032;-93
2022/12/24 05:48:13;;;;;;;;;;;;;;;;;;;;;
2022/12/24 05:50:52;;;;;;;31.50;4.88;;;;;;;8.83;100.00;100811.66;5068523;28;20139;-93
2022/12/24 05:53:52;;;;;;;32.00;5.20;;;;;;;8.85;100.00;100810.41;4986459;27;4921008;-93
2022/12/24 05:56:22;;;;;;;32.33;4.95;;;;;;;8.90;100.00;100809.81;5121780;28;20035;-93
2022/12/24 05:58:57;;;;;;;34.60;5.13;;;;;;;8.89;100.00;100805.44;5098942;28;20032;-94
2022/12/24 06:01:38;;;;;;;38.75;4.82;;;;;;;8.86;100.00;100806.69;5115279;28;20027;-93
2022/12/24 06:04:14;;;;;;;37.45;5.05;;;;;;;8.85;100.00;100807.72;5083057;28;20036;-93
2022/12/24 06:06:58;;;;;;;34.60;5.10;;;;;;;8.89;100.00;100822.50;5098124;28;20440;-92
2022/12/24 06:09:30;;;;;;;32.53;5.65;;;;;;;8.84;100.00;100819.56;5097344;28;20032;-91
2022/12/24 06:12:09;;;;;;;28.80;4.97;;;;;;;8.90;100.00;100820.63;5118158;28;20031;-96
2022/12/24 06:14:43;;;;;;;33.65;4.90;;;;;;;8.95;100.00;100824.38;5102624;28;20483;-96
2022/12/24 06:17:08;;;;;;;41.30;5.25;;;;;;;8.89;100.00;100819.81;5104548;28;20487;-96
2022/12/24 06:19:34;;;;;;;29.17;4.67;;;;;;;8.91;100.00;100825.81;5121579;28;20035;-96
2022/12/24 06:22:00;;;;;;;35.17;5.17;;;;;;;8.82;100.00;100818.94;5120556;28;20475;-96
2022/12/24 06:24:33;;;;;;;36.35;5.95;;;;;;;8.82;100.00;100826.25;5116233;28;20027;-95
2022/12/24 06:27:03;;;;;;;31.63;5.00;;;;;;;8.74;100.00;100811.88;5113647;28;20055;-91
2022/12/24 06:33:15;;;;;;;26.75;4.90;;;;;;;8.62;100.00;100828.88;5130753;28;20130;-91
2022/12/24 06:35:47;;;;;;;33.15;5.38;;;;;;;8.56;100.00;100846.75;5113543;28;20028;-93
2022/12/24 06:42:18;;;;;;;32.45;4.70;;;;;;;8.58;100.00;100859.03;5130135;28;20486;-91
2022/12/24 06:44:53;;;;;;;29.00;6.07;;;;;;;8.50;100.00;100842.16;5098172;28;20039;-91
2022/12/24 07:26:30;;;;;;;37.42;6.65;;;;;;;8.40;100.00;100880.31;5024056;28;20143;-90
2022/12/24 08:04:46;;;;;;;34.03;4.72;;;;;;;8.47;100.00;100950.72;5110732;27;20446;-91
2022/12/24 08:58:55;;;;;;;34.45;4.53;;;;;;;8.58;100.00;101021.31;5115649;28;20126;-91
2022/12/24 09:01:31;;;;;;;;;;;;;;;;;;;;;
2022/12/24 09:04:12;;;;;;;;;;;;;;;;;;;;;
2022/12/24 09:06:40;;;;;;;41.67;6.53;;;;;;;8.57;100.00;101029.63;5063617;28;20036;-91
2022/12/24 10:28:08;;;;;;;37.92;6.25;;;;;;;9.68;100.00;101115.34;5073617;28;20067;-88
2022/12/24 10:30:34;;;;;;;44.45;6.00;;;;;;;9.74;100.00;101095.56;5054012;28;20135;-87
2022/12/24 10:33:24;;;;;;;;;;;;;;;;;;;;;
2022/12/24 10:36:18;;;;;;;;;;;;;;;;;;;;;
2022/12/24 10:38:55;;;;;;;31.85;5.35;;;;;;;9.87;100.00;101108.31;5093852;28;20032;-88
2022/12/24 10:41:46;;;;;;;32.42;6.13;;;;;;;9.88;100.00;101123.56;5078583;28;20101;-88
2022/12/24 10:45:02;;;;;;;;;;;;;;;;;;;;;
2022/12/24 10:47:40;;;;;;;34.58;5.10;;;;;;;9.80;100.00;101111.03;5091662;28;20392;-88
2022/12/24 10:50:34;;;;;;;33.80;5.32;;;;;;;9.87;100.00;101104.78;5067940;28;20040;-88
2022/12/24 10:53:49;;;;;;;34.25;5.63;;;;;;;10.00;100.00;101113.78;5078490;28;20028;-88
2022/12/24 10:56:37;;;;;;;28.65;5.30;;;;;;;10.01;100.00;101125.47;4968173;28;20038;-88
2022/12/24 10:59:38;;;;;;;;;;;;;;;;;;;;;
2022/12/24 11:03:11;;;;;;;;;;;;;;;;;;;;;
2022/12/24 11:05:47;;;;;;;36.58;5.57;;;;;;;10.37;100.00;101109.91;5094702;28;20043;-89
2022/12/24 11:08:48;;;;;;;;;;;;;;;;;;;;;
2022/12/24 11:11:46;;;;;;;;;;;;;;;;;;;;;
2022/12/24 11:17:40;;;;;;;;;;;;;;;;;;;;;
2022/12/24 11:20:49;;;;;;;22.98;4.53;;;;;;;10.31;100.00;101125.09;5096983;28;20448;-88
2022/12/24 11:23:48;;;;;;;;;;;;;;;;;;;;;
2022/12/24 11:26:39;;;;;;;;;;;;;;;;;;;;;
2022/12/24 11:29:50;;;;;;;;;;;;;;;;;;;;;
2022/12/24 11:32:40;;;;;;;28.60;5.22;;;;;;;10.53;100.00;101123.06;5087254;28;20046;-89
2022/12/24 11:35:21;;;;;;;30.52;5.68;;;;;;;10.51;100.00;101123.28;5078771;28;20032;-89
2022/12/24 11:38:24;;;;;;;32.03;5.70;;;;;;;10.52;100.00;101121.38;5077520;28;20047;-89
2022/12/24 11:41:16;;;;;;;;;;;;;;;;;;;;;
2022/12/24 11:44:47;;;;;;;;;;;;;;;;;;;;;
2022/12/24 11:47:39;;;;;;;28.10;5.25;;;;;;;10.44;100.00;101140.59;5095878;28;20036;-89
2022/12/24 11:50:36;;;;;;;;;;;;;;;;;;;;;
2022/12/24 11:53:15;;;;;;;27.25;5.60;;;;;;;10.39;100.00;101141.19;5095681;28;20036;-89
2022/12/24 11:55:58;;;;;;;29.50;5.88;;;;;;;10.39;100.00;101148.50;5077353;28;20035;-89
2022/12/24 11:58:46;;;;;;;29.25;5.82;;;;;;;10.56;100.00;101144.34;5077743;28;20034;-89
2022/12/24 12:01:43;;;;;;;33.45;6.57;;;;;;;10.62;100.00;101139.97;5077950;28;20047;-89
2022/12/24 12:04:58;;;;;;;25.13;5.30;;;;;;;10.60;100.00;101128.47;5095308;28;20028;-89
2022/12/24 12:08:00;;;;;;;29.52;5.90;;;;;;;10.52;100.00;101135.78;5070980;28;20484;-89
2022/12/24 12:10:54;;;;;;;;;;;;;;;;;;;;;
2022/12/24 12:13:42;;;;;;;;;;;;;;;;;;;;;
2022/12/24 12:17:12;;;;;;;31.42;6.20;;;;;;;10.56;100.00;101135.38;5095085;28;20050;-88
2022/12/24 12:20:43;;;;;;;30.08;6.50;;;;;;;10.76;100.00;101143.50;5059432;28;20041;-89
2022/12/24 12:26:37;;;;;;;29.83;6.13;;;;;;;10.70;100.00;101139.75;5052360;28;20477;-89
2022/12/24 12:29:31;;;;;;;28.20;6.43;;;;;;;10.78;100.00;101150.41;5059215;28;20054;-89
2022/12/24 12:32:09;;;;;;;31.63;6.80;;;;;;;10.98;100.00;101157.69;5076785;28;20498;-89
2022/12/24 12:38:40;;;;;;;26.90;6.68;;;;;;;11.43;98.85;101157.81;5091869;28;20514;-90
2022/12/24 12:41:47;;;;;;;28.98;6.15;;;;;;;11.85;95.54;101162.88;5095600;28;20031;-89
2022/12/24 12:44:28;;;;;;;29.33;5.80;;;;;;;11.96;92.60;101170.41;5064308;28;20408;-91
2022/12/24 12:47:14;;;;;;;28.13;6.78;;;;;;;11.98;91.72;101164.75;5077037;28;20131;-91
2022/12/24 12:50:13;;;;;;;22.70;6.13;;;;;;;11.98;93.21;101172.91;5077330;28;20126;-91
2022/12/24 12:53:16;;;;;;;;;;;;;;;;;;;;;
2022/12/24 12:56:05;;;;;;;25.98;5.97;;;;;;;11.68;92.04;101179.69;5076497;28;20468;-90
2022/12/24 12:59:26;;;;;;;;;;;;;;;;;;;;;
2022/12/24 13:02:49;;;;;;;24.40;5.47;;;;;;;11.23;94.68;101183.16;5079418;28;20044;-91
2022/12/24 13:06:22;;;;;;;;;;;;;;;;;;;;;
2022/12/24 13:09:34;;;;;;;;;;;;;;;;;;;;;
2022/12/24 13:12:53;;;;;;;28.20;6.57;;;;;;;11.69;95.40;101188.66;4953645;29;20039;-89
2022/12/24 13:15:46;;;;;;;;;;;;;;;;;;;;;
2022/12/24 13:18:45;;;;;;;27.73;6.22;;;;;;;12.25;90.67;101189.91;4953916;29;20039;-90
2022/12/24 13:21:21;;;;;;;20.27;5.35;;;;;;;12.26;90.66;101159.75;5000423;28;20038;-88
2022/12/24 13:24:26;;;;;;;25.17;5.82;;;;;;;12.44;88.84;101167.16;5093831;28;20453;-91
2022/12/24 13:27:43;;;;;;;;;;;;;;;;;;;;;
2022/12/24 13:34:38;;;;;;;24.15;5.78;;;;;;;13.03;84.91;101175.09;5012365;28;20540;-90
2022/12/24 13:40:24;;;;;;;25.00;5.18;;;;;;;13.68;80.53;101187.44;4954088;29;20060;-91
2022/12/24 13:43:17;;;;;;;;;;;;;;;;;;;;;
2022/12/24 13:45:55;;;;;;;15.53;6.10;;;;;;;14.11;77.57;101175.56;4954352;28;20058;-89
2022/12/24 13:48:43;;;;;;;23.63;6.13;;;;;;;13.69;77.90;101194.56;4937687;29;20106;-88
2022/12/24 13:51:35;;;;;;;22.98;6.07;;;;;;;13.59;78.80;101183.34;4976114;28;20076;-90
2022/12/24 13:54:41;;;;;;;;;;;;;;;;;;;;;
2022/12/24 14:05:09;;;;;;;;;;;;;;;;;;;;;
2022/12/24 14:19:01;;;;;;;;;;;;;;;;;;;;;
2022/12/24 14:45:50;;;;;;;21.30;4.70;;;;;;;15.32;69.50;101225.59;4956406;29;20046;-91
2022/12/24 14:52:18;;;;;;;16.87;4.13;;;;;;;14.18;72.78;101249.97;4944342;28;20041;-91
2022/12/24 14:58:44;;;;;;;19.80;4.28;;;;;;;12.90;76.39;101251.47;4962099;28;20098;-91
2022/12/24 15:05:21;;;;;;;23.65;4.38;;;;;;;11.84;81.44;101257.22;4927902;28;20042;-91
2022/12/24 15:12:23;;;;;;;;;;;;;;;;;;;;;
2022/12/24 15:36:45;;;;;;;33.88;6.28;;;;;;;9.32;96.94;101267.28;4843096;29;20483;-91
2022/12/24 15:46:41;;;;;;;;;;;;;;;;;;;;;
2022/12/24 15:59:35;;;;;;;34.78;9.10;;;;;;;8.40;100.00;101294.03;4905295;29;20050;-91
2022/12/24 16:13:23;;;;;;;;;;;;;;;;;;;;;
2022/12/24 16:19:55;;;;;;;;;;;;;;;;;;;;;
2022/12/24 16:25:26;;;;;;;;;;;;;;;;;;;;;
2022/12/24 16:28:02;;;;;;;26.17;6.55;;;;;;;7.92;100.00;101289.06;4977673;28;20142;-96
2022/12/24 16:30:38;;;;;;;;;;;;;;;;;;;;;
2022/12/24 16:33:21;;;;;;;;;;;;;;;;;;;;;
2022/12/24 16:36:13;;;;;;;;;;;;;;;;;;;;;
2022/12/24 16:44:38;;;;;;;30.77;5.60;;;;;;;7.85;100.00;101325.94;4976379;28;20544;-91
2022/12/24 16:47:31;;;;;;;30.58;5.65;;;;;;;7.81;100.00;101321.94;4958725;28;20133;-91
2022/12/24 16:50:08;;;;;;;29.02;5.40;;;;;;;7.76;100.00;101318.97;4967396;28;20050;-91
2022/12/24 16:52:50;;;;;;;30.83;6.20;;;;;;;7.69;100.00;101311.63;4959041;28;20027;-91
2022/12/24 16:55:29;;;;;;;28.02;5.68;;;;;;;7.75;100.00;101320.84;4963675;28;20039;-91
2022/12/24 16:58:07;;;;;;;32.92;6.00;;;;;;;7.70;100.00;101301.63;4944972;28;20073;-91
2022/12/24 17:00:43;;;;;;;32.08;6.68;;;;;;;7.75;100.00;101301.06;4975354;28;20467;-91
2022/12/24 17:03:22;;;;;;;36.50;6.53;;;;;;;7.76;100.00;101302.75;4974902;28;20093;-92
2022/12/24 17:06:21;;;;;;;31.45;6.68;;;;;;;7.82;100.00;101302.00;4959297;28;20042;-91
2022/12/24 17:08:48;;;;;;;36.55;5.93;;;;;;;7.88;100.00;101307.53;4967745;28;20130;-90
2022/12/24 17:11:23;;;;;;;29.83;5.95;;;;;;;7.85;100.00;101305.19;4958731;28;20479;-91
2022/12/24 17:14:00;;;;;;;32.00;6.63;;;;;;;7.85;100.00;101307.03;4957863;28;20042;-91
2022/12/24 17:16:41;;;;;;;;;;;;;;;;;;;;;
2022/12/24 17:19:30;;;;;;;34.97;6.88;;;;;;;7.84;100.00;101297.25;4975707;28;20034;-93
2022/12/24 17:22:07;;;;;;;30.52;6.82;;;;;;;7.88;100.00;101320.19;4974288;28;20118;-92
2022/12/24 17:24:51;;;;;;;30.70;6.43;;;;;;;7.85;100.00;101324.13;4942295;28;20094;-92
2022/12/24 17:27:44;;;;;;;32.10;5.60;;;;;;;7.84;100.00;101310.75;4973891;28;20162;-92
2022/12/24 17:30:15;;;;;;;28.67;6.00;;;;;;;7.83;100.00;101315.34;4974397;28;20058;-91
2022/12/24 17:32:46;;;;;;;28.80;5.50;;;;;;;7.82;100.00;101313.66;4973708;28;20030;-92
2022/12/24 17:35:51;;;;;;;35.10;7.60;;;;;;;7.78;100.00;101317.78;4974183;28;20074;-92
2022/12/24 17:41:50;;;;;;;31.38;6.15;;;;;;;7.74;100.00;101340.75;4974259;28;20471;-91
2022/12/24 17:44:23;;;;;;;29.15;6.30;;;;;;;7.69;100.00;101330.53;4959331;28;20031;-90
2022/12/24 17:47:25;;;;;;;;;;;;;;;;;;;;;
2022/12/24 17:53:19;;;;;;;29.67;6.15;;;;;;;7.58;100.00;101324.72;4961204;28;20455;-92
2022/12/24 17:55:59;;;;;;;30.00;6.57;;;;;;;7.51;100.00;101313.81;4967506;28;20109;-91
2022/12/24 17:58:42;;;;;;;32.58;6.40;;;;;;;7.43;100.00;101305.81;4942315;28;20380;-91
2022/12/24 18:04:30;;;;;;;39.70;6.95;;;;;;;7.37;100.00;101302.81;4968544;28;20035;-92
2022/12/24 18:07:01;;;;;;;40.30;7.47;;;;;;;7.41;100.00;101305.13;4974392;28;20580;-92
2022/12/24 18:09:43;;;;;;;32.85;6.57;;;;;;;7.41;100.00;101300.59;4942667;28;20031;-91
2022/12/24 18:12:42;;;;;;;36.85;6.55;;;;;;;7.43;100.00;101298.53;4943442;28;20045;-91
2022/12/24 18:15:38;;;;;;;;;;;;;;;;;;;;;
2022/12/24 18:18:35;;;;;;;;;;;;;;;;;;;;;
2022/12/24 18:21:16;;;;;;;35.22;6.07;;;;;;;7.49;100.00;101316.69;4975207;28;20039;-91
2022/12/24 18:23:48;;;;;;;30.70;6.35;;;;;;;7.38;100.00;101301.78;4974392;28;20041;-92
2022/12/24 18:26:45;;;;;;;33.78;7.50;;;;;;;7.34;100.00;101305.03;4974046;28;20062;-91
2022/12/24 18:29:38;;;;;;;35.13;6.45;;;;;;;7.34;100.00;101308.56;4974039;28;20062;-91
2022/12/24 18:32:16;;;;;;;31.80;6.68;;;;;;;7.28;100.00;101306.59;4973730;28;20034;-92
2022/12/24 18:34:52;;;;;;;33.03;6.65;;;;;;;7.31;100.00;101324.31;4974140;28;20042;-91
2022/12/24 18:37:33;;;;;;;32.83;6.63;;;;;;;7.22;100.00;101309.19;4973878;28;20126;-92
2022/12/24 18:40:05;;;;;;;34.10;6.57;;;;;;;7.20;100.00;101299.44;4960313;28;20062;-92
2022/12/24 18:42:42;;;;;;;;;;;;;;;;;;;;;
2022/12/24 18:45:12;;;;;;;35.60;7.43;;;;;;;7.18;100.00;101295.22;4958993;28;20061;-92
2022/12/24 18:47:45;;;;;;;47.00;8.85;;;;;;;7.20;100.00;101299.44;4973787;28;20031;-92
2022/12/24 18:50:27;;;;;;;;;;;;;;;;;;;;;
2022/12/24 18:52:56;;;;;;;42.83;9.38;;;;;;;7.28;100.00;101301.22;4959874;28;20031;-91
2022/12/24 18:55:26;;;;;;;40.58;10.05;;;;;;;7.37;100.00;101318.16;4958358;28;20088;-92
2022/12/24 18:58:07;;;;;;;38.08;9.23;;;;;;;7.35;100.00;101298.59;4958262;28;20070;-92
2022/12/24 19:00:43;;;;;;;;;;;;;;;;;;;;;
2022/12/24 19:03:22;;;;;;;30.40;8.38;;;;;;;7.34;100.00;101313.97;4979072;28;20390;-92
2022/12/24 19:06:13;;;;;;;40.80;9.55;;;;;;;7.27;100.00;101302.22;4962467;28;20042;-92
2022/12/24 19:11:40;;;;;;;32.50;8.30;;;;;;;7.18;100.00;101312.25;4970838;28;20039;-93
2022/12/24 19:14:31;;;;;;;37.75;9.07;;;;;;;7.18;100.00;101316.81;4977394;28;20058;-92
2022/12/24 19:17:02;;;;;;;35.85;8.25;;;;;;;7.15;100.00;101307.22;4931680;28;20101;-93
2022/12/24 19:19:51;;;;;;;40.13;9.68;;;;;;;7.15;100.00;101317.19;4977152;28;20030;-92
2022/12/24 19:22:52;;;;;;;;;;;;;;;;;;;;;
2022/12/24 19:25:48;;;;;;;36.90;8.18;;;;;;;7.11;100.00;101316.69;4977852;28;20031;-91
2022/12/24 19:28:50;;;;;;;32.90;8.88;;;;;;;7.13;100.00;101325.47;4945700;28;20475;-92
2022/12/24 19:31:31;;;;;;;;;;;;;;;;;;;;;
2022/12/24 19:34:14;;;;;;;;;;;;;;;;;;;;;
2022/12/24 19:36:45;;;;;;;32.90;7.57;;;;;;;7.12;100.00;101321.06;4976654;28;20061;-93
2022/12/24 19:39:23;;;;;;;32.45;8.40;;;;;;;7.14;100.00;101328.97;4960440;28;20031;-93
2022/12/24 19:42:03;;;;;;;39.45;8.27;;;;;;;7.15;100.00;101320.72;4944965;28;20035;-93
2022/12/24 19:44:46;;;;;;;;;;;;;;;;;;;;;
2022/12/24 19:47:44;;;;;;;31.38;8.57;;;;;;;7.14;100.00;101321.72;4976470;28;20029;-93
2022/12/24 19:50:14;;;;;;;36.53;7.95;;;;;;;7.20;100.00;101330.94;4960164;28;20027;-93
2022/12/24 19:53:04;;;;;;;36.30;8.13;;;;;;;7.19;100.00;101326.59;4960579;28;20121;-92
2022/12/24 19:56:19;;;;;;;39.22;8.18;;;;;;;7.29;100.00;101342.53;4975796;28;20027;-91
2022/12/24 19:59:21;;;;;;;;;;;;;;;;;;;;;
2022/12/24 20:01:57;;;;;;;45.58;9.27;;;;;;;7.18;100.00;101335.72;4961123;28;20045;-92
2022/12/24 20:04:51;;;;;;;47.03;10.43;;;;;;;7.17;100.00;101344.81;4960445;28;20026;-91
2022/12/24 20:07:30;;;;;;;40.40;9.02;;;;;;;7.17;100.00;101334.84;4961873;28;20042;-92
2022/12/24 20:10:04;;;;;;;41.55;8.80;;;;;;;7.18;100.00;101343.81;4959581;28;20042;-92
2022/12/24 20:13:20;;;;;;;37.90;8.07;;;;;;;7.19;100.00;101340.09;4960011;28;20538;-92
2022/12/24 20:16:22;;;;;;;;;;;;;;;;;;;;;
2022/12/24 20:19:18;;;;;;;36.95;8.05;;;;;;;7.21;100.00;101335.34;4976375;28;20505;-92
2022/12/24 20:22:08;;;;;;;37.67;8.45;;;;;;;7.21;100.00;101332.63;4975351;28;20039;-93
2022/12/24 20:24:54;;;;;;;37.47;7.32;;;;;;;7.21;100.00;101346.13;4959673;28;20046;-92
2022/12/24 20:27:43;;;;;;;;;;;;;;;;;;;;;
2022/12/24 20:30:27;;;;;;;33.47;8.10;;;;;;;7.22;100.00;101349.66;4976420;28;20045;-91
2022/12/24 20:33:32;;;;;;;;;;;;;;;;;;;;;
2022/12/24 20:36:20;;;;;;;;;;;;;;;;;;;;;
2022/12/24 20:39:30;;;;;;;33.83;7.07;;;;;;;7.23;100.00;101365.69;4976192;28;20027;-93
2022/12/24 20:42:19;;;;;;;38.97;8.93;;;;;;;7.24;100.00;101356.56;4975262;28;20387;-92
2022/12/24 20:44:59;;;;;;;27.80;7.95;;;;;;;7.23;100.00;101351.34;4959217;28;20042;-92
2022/12/24 20:50:55;;;;;;;40.90;9.13;;;;;;;7.15;100.00;101347.69;4977532;28;20039;-91
2022/12/24 20:53:41;;;;;;;36.28;8.30;;;;;;;7.14;100.00;101348.69;4965932;28;20035;-91
2022/12/24 20:56:23;;;;;;;40.17;8.95;;;;;;;7.12;100.00;101339.97;4961236;28;20506;-92
2022/12/24 20:59:08;;;;;;;41.67;9.70;;;;;;;7.12;100.00;101339.13;4975964;28;20034;-93
2022/12/24 21:01:36;;;;;;;42.42;10.00;;;;;;;7.10;100.00;101336.63;4975260;28;20398;-92
2022/12/24 21:04:26;;;;;;;35.10;9.02;;;;;;;7.09;100.00;101324.13;4958755;28;20467;-92
2022/12/24 21:07:46;;;;;;;33.45;8.57;;;;;;;7.19;100.00;101349.03;4961586;28;20042;-93
2022/12/24 21:14:05;;;;;;;;;;;;;;;;;;;;;
2022/12/24 21:16:41;;;;;;;;;;;;;;;;;;;;;
2022/12/24 21:22:33;;;;;;;40.95;8.77;;;;;;;7.18;100.00;101351.91;4984710;28;20034;-93
2022/12/24 21:25:23;;;;;;;;;;;;;;;;;;;;;
2022/12/24 21:27:56;;;;;;;40.60;9.02;;;;;;;7.16;100.00;101324.22;4960834;28;20061;-92
2022/12/24 21:30:58;;;;;;;31.42;9.23;;;;;;;7.20;100.00;101325.56;4974487;28;20026;-92
2022/12/24 21:33:44;;;;;;;37.17;8.63;;;;;;;7.20;100.00;101314.75;4944600;28;20057;-92
2022/12/24 21:36:31;;;;;;;42.53;8.98;;;;;;;7.18;100.00;101304.16;4974810;28;20034;-92
2022/12/24 21:39:32;;;;;;;;;;;;;;;;;;;;;
2022/12/24 21:42:08;;;;;;;35.90;9.70;;;;;;;7.20;100.00;101294.03;4956998;28;20050;-91
2022/12/24 21:44:46;;;;;;;37.13;9.00;;;;;;;7.26;100.00;101289.72;4944079;28;20035;-93
2022/12/24 21:47:23;;;;;;;34.40;8.73;;;;;;;7.20;100.00;101269.75;4958957;28;20039;-92
2022/12/24 21:56:17;;;;;;;35.05;8.25;;;;;;;7.11;100.00;101269.97;4975163;28;20065;-90
2022/12/24 21:58:45;;;;;;;32.97;7.70;;;;;;;7.11;100.00;101269.97;4957854;28;20035;-88